createdAt,value
2023-01-03T00:00:25.204Z,71.94
2023-01-03T00:05:25.031Z,71.96
2023-01-03T00:10:24.975Z,71.96
2023-01-03T00:15:24.901Z,72.01
2023-01-03T00:20:24.825Z,72.08
2023-01-03T00:25:24.753Z,72.12
2023-01-03T00:30:24.709Z,72.20
2023-01-03T00:35:24.615Z,72.23
2023-01-03T00:40:24.571Z,72.29
2023-01-03T00:45:25.891Z,72.32
2023-01-03T00:50:24.426Z,72.30
2023-01-03T00:55:24.366Z,72.30
2023-01-03T01:00:24.306Z,72.29
2023-01-03T01:05:44.062Z,72.27
2023-01-03T01:10:36.462Z,72.24
2023-01-03T01:15:36.470Z,72.28
2023-01-03T01:20:36.328Z,72.28
2023-01-03T01:25:36.284Z,72.28
2023-01-03T01:30:36.182Z,72.29
2023-01-03T01:35:36.109Z,72.27
2023-01-03T01:40:36.059Z,72.27
2023-01-03T01:45:36.022Z,72.27
2023-01-03T01:50:35.908Z,72.29
2023-01-03T01:55:35.865Z,72.31
2023-01-03T02:00:35.781Z,72.34
2023-01-03T02:05:35.715Z,72.34
2023-01-03T02:10:35.663Z,72.34
2023-01-03T02:15:35.604Z,72.34
2023-01-03T02:20:35.512Z,72.33
2023-01-03T02:25:35.474Z,72.34
2023-01-03T02:30:35.367Z,72.35
2023-01-03T02:35:35.330Z,72.35
2023-01-03T02:40:35.243Z,72.35
2023-01-03T02:45:35.209Z,72.35
2023-01-03T02:50:35.114Z,72.35
2023-01-03T02:55:35.060Z,72.34
2023-01-03T03:00:34.999Z,72.28
2023-01-03T03:05:34.929Z,72.26
2023-01-03T03:10:34.847Z,72.24
2023-01-03T03:15:34.786Z,72.22
2023-01-03T03:20:34.722Z,72.23
2023-01-03T03:25:34.664Z,72.24
2023-01-03T03:30:34.578Z,72.27
2023-01-03T03:35:34.528Z,72.27
2023-01-03T03:40:34.446Z,72.29
2023-01-03T03:45:34.427Z,72.29
2023-01-03T03:50:34.358Z,72.30
2023-01-03T03:55:34.260Z,72.28
2023-01-03T04:00:34.166Z,72.28
2023-01-03T04:05:34.115Z,72.30
2023-01-03T04:10:37.636Z,72.30
2023-01-03T04:15:33.961Z,72.32
2023-01-03T04:20:33.897Z,72.34
2023-01-03T04:25:33.836Z,72.36
2023-01-03T04:30:33.795Z,72.38
2023-01-03T04:35:33.702Z,72.39
2023-01-03T04:40:33.638Z,72.39
2023-01-03T04:45:33.600Z,72.39
2023-01-03T04:50:33.507Z,72.39
2023-01-03T04:55:36.423Z,72.35
2023-01-03T05:00:33.380Z,72.37
2023-01-03T05:05:33.278Z,72.37
2023-01-03T05:10:33.251Z,72.43
2023-01-03T05:15:47.767Z,72.47
2023-01-03T05:20:40.134Z,72.52
2023-01-03T05:25:40.090Z,72.64
2023-01-03T05:30:40.000Z,72.72
2023-01-03T05:35:40.002Z,72.78
2023-01-03T05:40:41.563Z,72.85
2023-01-03T05:45:39.899Z,72.89
2023-01-03T05:50:39.792Z,72.90
2023-01-03T05:55:39.643Z,72.91
2023-01-03T06:00:39.629Z,72.98
2023-01-03T06:05:44.596Z,73.05
2023-01-03T06:10:40.460Z,73.10
2023-01-03T06:15:39.414Z,73.13
2023-01-03T06:20:39.360Z,73.17
2023-01-03T06:25:39.309Z,73.18
2023-01-03T06:30:39.202Z,73.22
2023-01-03T06:35:39.161Z,73.25
2023-01-03T06:40:45.443Z,73.25
2023-01-03T06:45:40.017Z,73.26
2023-01-03T06:50:38.947Z,73.31
2023-01-03T06:55:38.881Z,73.34
2023-01-03T07:00:38.802Z,73.38
2023-01-03T07:05:38.751Z,73.40
2023-01-03T07:10:38.660Z,73.40
2023-01-03T07:15:38.635Z,73.41
2023-01-03T07:20:38.512Z,73.44
2023-01-03T07:25:38.488Z,73.43
2023-01-03T07:30:38.388Z,73.45
2023-01-03T07:35:38.353Z,73.45
2023-01-03T07:40:38.266Z,73.43
2023-01-03T07:45:38.211Z,73.37
2023-01-03T07:50:38.137Z,73.34
2023-01-03T07:55:38.083Z,73.33
2023-01-03T08:00:37.987Z,73.21
2023-01-03T08:05:37.960Z,73.08
2023-01-03T08:10:37.864Z,72.85
2023-01-03T08:15:37.873Z,72.67
2023-01-03T08:20:37.844Z,71.69
2023-01-03T08:25:37.673Z,70.46
2023-01-03T08:30:37.596Z,69.51
2023-01-03T08:35:37.549Z,70.54
2023-01-03T08:40:41.815Z,71.49
2023-01-03T08:45:38.434Z,71.92
2023-01-03T08:50:37.327Z,71.98
2023-01-03T08:55:37.273Z,71.72
2023-01-03T09:00:37.183Z,70.81
2023-01-03T09:05:37.158Z,70.39
2023-01-03T09:10:39.676Z,65.01
2023-01-03T09:15:37.994Z,66.51
2023-01-03T09:20:36.932Z,62.43
2023-01-03T09:25:37.643Z,60.50
2023-01-03T09:30:36.820Z,58.92
2023-01-03T09:35:36.693Z,58.34
2023-01-03T09:40:36.665Z,57.92
2023-01-03T09:45:36.642Z,57.62
2023-01-03T09:50:57.336Z,57.18
2023-01-03T09:55:37.463Z,57.22
2023-01-03T10:00:36.419Z,57.25
2023-01-03T10:05:36.311Z,56.13
2023-01-03T10:10:36.247Z,55.32
2023-01-03T10:15:36.190Z,56.37
2023-01-03T10:20:36.125Z,55.25
2023-01-03T10:25:36.091Z,53.38
2023-01-03T10:30:36.012Z,51.53
2023-01-03T10:35:35.940Z,49.77
2023-01-03T10:40:35.868Z,52.78
2023-01-03T10:45:41.614Z,57.63
2023-01-03T10:50:36.721Z,59.34
2023-01-03T10:55:35.631Z,60.94
2023-01-03T11:00:35.628Z,62.08
2023-01-03T11:05:35.542Z,61.46
2023-01-03T11:10:35.420Z,62.17
2023-01-03T11:15:38.673Z,62.41
2023-01-03T11:20:35.313Z,62.91
2023-01-03T11:25:35.239Z,63.42
2023-01-03T11:30:35.167Z,63.01
2023-01-03T11:35:35.108Z,63.16
2023-01-03T11:40:35.052Z,62.77
2023-01-03T11:45:35.032Z,62.80
2023-01-03T11:50:37.433Z,63.36
2023-01-03T11:55:34.840Z,63.96
2023-01-03T12:00:34.793Z,63.94
2023-01-03T12:05:34.672Z,63.57
2023-01-03T12:10:34.641Z,63.55
2023-01-03T12:15:34.598Z,62.76
2023-01-03T12:20:34.539Z,61.43
2023-01-03T12:25:34.411Z,62.10
2023-01-03T12:30:34.354Z,61.45
2023-01-03T12:35:34.300Z,61.23
2023-01-03T12:40:34.243Z,60.83
2023-01-03T12:45:34.924Z,60.61
2023-01-03T12:50:34.183Z,60.48
2023-01-03T12:55:34.060Z,61.36
2023-01-03T13:00:33.978Z,61.02
2023-01-03T13:05:33.900Z,61.55
2023-01-03T13:10:33.854Z,61.84
2023-01-03T13:15:36.929Z,62.51
2023-01-03T13:20:33.718Z,62.37
2023-01-03T13:25:33.632Z,62.58
2023-01-03T13:30:33.564Z,62.85
2023-01-03T13:35:33.492Z,63.01
2023-01-03T13:41:08.050Z,63.17
2023-01-03T13:45:34.352Z,63.37
2023-01-03T13:50:33.287Z,63.58
2023-01-03T13:55:33.202Z,63.59
2023-01-03T14:00:33.158Z,63.51
2023-01-03T14:05:33.065Z,63.16
2023-01-03T14:10:33.022Z,62.70
2023-01-03T14:15:32.964Z,62.98
2023-01-03T14:20:32.911Z,63.43
2023-01-03T14:25:32.804Z,63.70
2023-01-03T14:30:32.747Z,63.93
2023-01-03T14:35:32.679Z,63.99
2023-01-03T14:40:32.622Z,63.71
2023-01-03T14:45:32.544Z,63.93
2023-01-03T14:50:32.483Z,64.17
2023-01-03T14:55:32.538Z,64.38
2023-01-03T15:00:33.511Z,64.75
2023-01-03T15:05:32.230Z,65.09
2023-01-03T15:10:32.207Z,65.30
2023-01-03T15:15:32.125Z,65.47
2023-01-03T15:20:32.066Z,65.60
2023-01-03T15:25:32.012Z,65.65
2023-01-03T15:30:31.947Z,65.84
2023-01-03T15:35:31.897Z,65.98
2023-01-03T15:40:31.816Z,66.07
2023-01-03T15:45:31.754Z,66.19
2023-01-03T15:50:31.686Z,66.31
2023-01-03T15:55:31.610Z,66.46
2023-01-03T16:00:31.550Z,66.64
2023-01-03T16:05:31.462Z,66.79
2023-01-03T16:10:31.429Z,66.92
2023-01-03T16:15:31.323Z,67.04
2023-01-03T16:20:31.292Z,67.15
2023-01-03T16:25:31.193Z,67.25
2023-01-03T16:30:31.121Z,67.36
2023-01-03T16:35:31.055Z,67.45
2023-01-03T16:40:31.344Z,67.57
2023-01-03T16:45:31.027Z,67.69
2023-01-03T16:50:30.884Z,67.71
2023-01-03T16:55:31.924Z,67.77
2023-01-03T17:00:30.760Z,67.84
2023-01-03T17:05:30.655Z,67.94
2023-01-03T17:10:30.599Z,68.02
2023-01-03T17:15:30.534Z,68.11
2023-01-03T17:20:30.497Z,68.15
2023-01-03T17:25:30.408Z,68.20
2023-01-03T17:30:30.380Z,68.24
2023-01-03T17:35:30.270Z,68.28
2023-01-03T17:40:34.032Z,68.36
2023-01-03T17:45:30.123Z,68.37
2023-01-03T17:50:30.080Z,68.37
2023-01-03T17:55:29.990Z,68.41
2023-01-03T18:00:29.991Z,68.43
2023-01-03T18:05:29.913Z,68.42
2023-01-03T18:10:29.812Z,68.42
2023-01-03T18:15:29.831Z,68.47
2023-01-03T18:20:29.653Z,68.58
2023-01-03T18:25:29.622Z,68.66
2023-01-03T18:30:29.517Z,68.72
2023-01-03T18:35:37.276Z,68.75
2023-01-03T18:40:30.402Z,68.84
2023-01-03T18:45:29.418Z,68.91
2023-01-03T18:50:29.242Z,69.00
2023-01-03T18:55:29.183Z,69.06
2023-01-03T19:00:29.121Z,69.09
2023-01-03T19:05:29.073Z,69.11
2023-01-03T19:10:29.002Z,69.11
2023-01-03T19:15:28.923Z,69.16
2023-01-03T19:20:28.883Z,69.17
2023-01-03T19:25:28.836Z,69.28
2023-01-03T19:30:35.268Z,69.28
2023-01-03T19:35:29.670Z,69.31
2023-01-03T19:40:28.592Z,69.34
2023-01-03T19:45:28.531Z,69.36
2023-01-03T19:50:28.441Z,69.42
2023-01-03T19:55:28.398Z,69.43
2023-01-03T20:00:28.355Z,69.44
2023-01-03T20:05:28.275Z,69.46
2023-01-03T20:10:28.181Z,69.50
2023-01-03T20:15:28.154Z,69.53
2023-01-03T20:20:28.064Z,69.57
2023-01-03T20:25:28.029Z,69.60
2023-01-03T20:30:27.952Z,69.64
2023-01-03T20:40:28.800Z,69.82
2023-01-03T20:45:27.716Z,69.85
2023-01-03T20:50:27.643Z,69.88
2023-01-03T20:55:27.625Z,70.01
2023-01-03T21:00:27.519Z,70.03
2023-01-03T21:05:27.476Z,70.08
2023-01-03T21:10:27.420Z,70.09
2023-01-03T21:15:27.314Z,70.10
2023-01-03T21:20:27.260Z,70.10
2023-01-03T21:25:27.975Z,70.08
2023-01-03T21:30:27.288Z,70.05
2023-01-03T21:35:27.066Z,70.02
2023-01-03T21:40:26.989Z,69.99
2023-01-03T21:45:26.948Z,69.96
2023-01-03T21:50:26.862Z,69.97
2023-01-03T21:55:26.786Z,70.01
2023-01-03T22:00:26.725Z,70.04
2023-01-03T22:05:26.666Z,70.06
2023-01-03T22:10:26.581Z,70.25
2023-01-03T22:15:26.540Z,70.22
2023-01-03T22:20:26.461Z,70.23
2023-01-03T22:25:26.388Z,70.20
2023-01-03T22:30:26.323Z,70.24
2023-01-03T22:35:26.278Z,70.28
2023-01-03T22:40:26.183Z,70.29
2023-01-03T22:45:26.156Z,70.27
2023-01-03T22:50:26.027Z,70.23
2023-01-03T22:55:31.746Z,70.17
2023-01-03T23:00:26.906Z,70.10
2023-01-03T23:05:25.855Z,70.08
2023-01-03T23:10:25.768Z,70.06
2023-01-03T23:15:25.738Z,70.09
2023-01-03T23:20:25.628Z,70.08
2023-01-03T23:25:25.585Z,70.09
2023-01-03T23:30:25.560Z,70.08
2023-01-03T23:35:25.448Z,70.08
2023-01-03T23:40:25.382Z,70.07
2023-01-03T23:45:25.326Z,70.05
2023-01-03T23:50:25.230Z,70.06
2023-01-03T23:55:25.226Z,70.04
